createdAt,value
2019-03-12T00:01:19.733Z,21.20
2019-03-12T00:04:25.290Z,21.20
2019-03-12T00:07:30.743Z,21.20
2019-03-12T00:10:36.267Z,21.20
2019-03-12T00:13:41.795Z,21.10
2019-03-12T00:16:47.316Z,21.20
2019-03-12T00:19:52.808Z,21.20
2019-03-12T00:22:58.471Z,21.10
2019-03-12T00:26:04.164Z,21.10
2019-03-12T00:29:11.480Z,21.10
2019-03-12T00:32:17.151Z,21.10
2019-03-12T00:35:22.864Z,21.10
2019-03-12T00:38:28.587Z,21.00
2019-03-12T00:41:35.394Z,21.10
2019-03-12T00:44:40.946Z,21.00
2019-03-12T00:47:46.416Z,21.00
2019-03-12T00:50:52.051Z,21.00
2019-03-12T00:53:57.670Z,21.00
2019-03-12T00:57:03.401Z,20.90
2019-03-12T01:00:11.303Z,20.90
2019-03-12T01:03:16.984Z,20.90
2019-03-12T01:06:23.563Z,20.90
2019-03-12T01:09:29.211Z,20.90
2019-03-12T01:12:34.700Z,20.90
2019-03-12T01:15:40.156Z,20.90
2019-03-12T01:18:45.655Z,20.80
2019-03-12T01:21:51.116Z,20.80
2019-03-12T01:24:56.606Z,20.80
2019-03-12T01:28:02.099Z,20.80
2019-03-12T01:31:07.555Z,20.80
2019-03-12T01:34:13.046Z,20.80
2019-03-12T01:37:18.671Z,20.80
2019-03-12T01:40:24.129Z,20.80
2019-03-12T01:43:29.584Z,20.70
2019-03-12T01:46:35.036Z,20.70
2019-03-12T01:49:40.496Z,20.70
2019-03-12T01:52:45.995Z,20.70
2019-03-12T01:55:51.452Z,20.70
2019-03-12T01:58:56.909Z,20.70
2019-03-12T02:02:02.355Z,20.70
2019-03-12T02:05:08.114Z,20.70
2019-03-12T02:08:15.515Z,20.60
2019-03-12T02:11:21.103Z,20.60
2019-03-12T02:14:28.599Z,20.60
2019-03-12T02:17:34.359Z,20.60
2019-03-12T02:20:40.012Z,20.60
2019-03-12T02:23:45.724Z,20.60
2019-03-12T02:26:51.445Z,20.60
2019-03-12T02:29:57.096Z,20.60
2019-03-12T02:33:02.749Z,20.60
2019-03-12T02:36:08.580Z,20.50
2019-03-12T02:39:14.372Z,20.50
2019-03-12T02:42:20.103Z,20.50
2019-03-12T02:45:25.786Z,20.50
2019-03-12T02:48:31.422Z,20.50
2019-03-12T02:51:37.076Z,20.50
2019-03-12T02:54:42.745Z,20.40
2019-03-12T02:57:48.361Z,20.40
2019-03-12T03:00:54.031Z,20.40
2019-03-12T03:03:59.789Z,20.30
2019-03-12T03:07:19.404Z,20.30
2019-03-12T03:10:26.052Z,20.30
2019-03-12T03:13:31.807Z,20.30
2019-03-12T03:16:37.558Z,20.30
2019-03-12T03:19:43.106Z,20.20
2019-03-12T03:22:49.770Z,20.20
2019-03-12T03:25:55.468Z,20.20
2019-03-12T03:29:01.184Z,20.20
2019-03-12T03:32:06.945Z,20.20
2019-03-12T03:35:12.596Z,20.10
2019-03-12T03:38:18.268Z,20.10
2019-03-12T03:41:24.924Z,20.10
2019-03-12T03:44:30.581Z,20.10
2019-03-12T03:47:36.375Z,20.10
2019-03-12T03:50:41.956Z,20.10
2019-03-12T03:53:47.618Z,20.10
2019-03-12T03:56:53.327Z,20.00
2019-03-12T03:59:58.941Z,20.00
2019-03-12T04:03:04.629Z,20.00
2019-03-12T04:06:11.351Z,20.00
2019-03-12T04:09:17.132Z,20.00
2019-03-12T04:12:22.832Z,20.00
2019-03-12T04:15:29.437Z,20.00
2019-03-12T04:18:35.148Z,20.00
2019-03-12T04:21:40.871Z,20.00
2019-03-12T04:24:46.625Z,19.90
2019-03-12T04:27:52.417Z,19.90
2019-03-12T04:30:58.132Z,19.90
2019-03-12T04:34:19.181Z,19.90
2019-03-12T04:37:24.790Z,19.90
2019-03-12T04:40:30.594Z,19.90
2019-03-12T04:43:36.304Z,19.80
2019-03-12T04:46:41.965Z,19.90
2019-03-12T04:49:47.624Z,19.80
2019-03-12T04:52:53.245Z,19.80
2019-03-12T04:55:58.951Z,19.80
2019-03-12T04:59:04.568Z,19.80
2019-03-12T05:02:10.255Z,19.80
2019-03-12T05:05:15.892Z,19.80
2019-03-12T05:08:21.510Z,19.80
2019-03-12T05:11:28.239Z,19.70
2019-03-12T05:14:35.476Z,19.70
2019-03-12T05:17:41.227Z,19.70
2019-03-12T05:20:46.948Z,19.70
2019-03-12T05:23:52.666Z,19.70
2019-03-12T05:26:58.356Z,19.70
2019-03-12T05:30:04.053Z,19.70
2019-03-12T05:33:09.807Z,19.70
2019-03-12T05:36:15.488Z,19.70
2019-03-12T05:39:21.127Z,19.70
2019-03-12T05:42:26.820Z,19.70
2019-03-12T05:45:32.431Z,19.70
2019-03-12T05:48:38.067Z,19.70
2019-03-12T05:51:46.363Z,19.70
2019-03-12T05:54:52.957Z,19.80
2019-03-12T05:57:58.610Z,19.70
2019-03-12T06:01:04.279Z,19.80
2019-03-12T06:04:09.932Z,19.90
2019-03-12T06:07:15.625Z,19.90
2019-03-12T06:10:21.216Z,19.90
2019-03-12T06:13:26.899Z,20.00
2019-03-12T06:16:32.544Z,20.00
2019-03-12T06:19:38.175Z,20.10
2019-03-12T06:22:43.892Z,20.10
2019-03-12T06:25:49.612Z,20.10
2019-03-12T06:28:55.360Z,20.20
2019-03-12T06:32:26.099Z,20.20
2019-03-12T06:35:49.420Z,20.20
2019-03-12T06:39:27.557Z,20.20
2019-03-12T06:42:52.120Z,20.30
2019-03-12T06:46:16.720Z,20.30
2019-03-12T06:49:29.263Z,20.30
2019-03-12T06:52:42.021Z,20.40
2019-03-12T06:55:58.312Z,20.40
2019-03-12T06:59:37.933Z,20.40
2019-03-12T07:03:11.864Z,20.40
2019-03-12T07:06:45.423Z,20.50
2019-03-12T07:10:28.223Z,20.50
2019-03-12T07:13:40.899Z,20.50
2019-03-12T07:17:12.759Z,20.50
2019-03-12T07:20:46.211Z,20.60
2019-03-12T07:24:16.788Z,20.60
2019-03-12T07:27:36.828Z,20.60
2019-03-12T07:31:10.372Z,20.60
2019-03-12T07:34:22.130Z,20.60
2019-03-12T07:37:38.808Z,20.60
2019-03-12T07:41:26.491Z,20.60
2019-03-12T07:45:00.133Z,20.70
2019-03-12T07:48:23.503Z,20.70
2019-03-12T07:51:57.187Z,20.70
2019-03-12T07:55:13.206Z,20.70
2019-03-12T07:58:41.859Z,20.80
2019-03-12T08:02:24.573Z,20.80
2019-03-12T08:05:47.771Z,20.80
2019-03-12T08:09:04.662Z,20.80
2019-03-12T08:12:20.629Z,20.80
2019-03-12T08:15:54.179Z,20.80
2019-03-12T08:19:18.807Z,20.80
2019-03-12T08:22:49.684Z,20.90
2019-03-12T08:26:26.509Z,20.90
2019-03-12T08:29:57.167Z,20.80
2019-03-12T08:33:20.445Z,20.80
2019-03-12T08:36:47.820Z,20.80
2019-03-12T08:40:04.279Z,20.80
2019-03-12T08:43:40.203Z,20.70
2019-03-12T08:47:13.693Z,20.80
2019-03-12T08:50:38.240Z,20.90
2019-03-12T08:54:06.171Z,21.10
2019-03-12T08:57:24.840Z,21.30
2019-03-12T09:00:46.048Z,21.50
2019-03-12T09:04:09.657Z,21.60
2019-03-12T09:07:32.848Z,21.70
2019-03-12T09:11:06.355Z,21.70
2019-03-12T09:14:43.055Z,21.90
2019-03-12T09:18:06.153Z,22.00
2019-03-12T09:21:29.583Z,22.00
2019-03-12T09:24:53.047Z,22.00
2019-03-12T09:28:14.180Z,21.80
2019-03-12T09:31:41.604Z,21.70
2019-03-12T09:35:09.432Z,21.50
2019-03-12T09:38:39.870Z,21.50
2019-03-12T09:42:07.559Z,21.40
2019-03-12T09:45:38.363Z,21.30
2019-03-12T09:49:00.616Z,21.30
2019-03-12T09:52:31.224Z,21.30
2019-03-12T09:55:51.244Z,21.30
2019-03-12T09:59:15.888Z,21.20
2019-03-12T10:02:41.505Z,21.20
2019-03-12T10:06:09.487Z,21.20
2019-03-12T10:09:24.648Z,21.30
2019-03-12T10:12:48.405Z,21.30
2019-03-12T10:16:03.979Z,21.30
2019-03-12T10:19:15.366Z,21.30
2019-03-12T10:22:45.189Z,21.30
2019-03-12T10:26:25.924Z,21.30
2019-03-12T10:30:02.651Z,21.30
2019-03-12T10:33:43.651Z,21.20
2019-03-12T10:37:12.630Z,21.20
2019-03-12T10:40:31.900Z,21.30
2019-03-12T10:43:56.603Z,21.30
2019-03-12T10:47:16.299Z,21.30
2019-03-12T10:50:22.020Z,21.20
2019-03-12T10:53:27.919Z,21.30
2019-03-12T10:56:33.752Z,21.30
2019-03-12T10:59:40.631Z,21.30
2019-03-12T11:02:46.659Z,21.40
2019-03-12T11:05:52.348Z,21.30
2019-03-12T11:08:58.127Z,21.40
2019-03-12T11:12:03.751Z,21.40
2019-03-12T11:15:09.893Z,21.40
2019-03-12T11:18:15.548Z,21.40
2019-03-12T11:21:21.320Z,21.40
2019-03-12T11:24:27.008Z,21.40
2019-03-12T11:27:32.628Z,21.50
2019-03-12T11:30:38.560Z,21.50
2019-03-12T11:33:46.185Z,21.50
2019-03-12T11:36:53.552Z,21.50
2019-03-12T11:39:59.589Z,21.40
2019-03-12T11:43:06.740Z,21.50
2019-03-12T11:46:12.569Z,21.50
2019-03-12T11:49:18.293Z,21.50
2019-03-12T11:52:23.917Z,21.50
2019-03-12T11:55:30.884Z,21.50
2019-03-12T11:58:36.608Z,21.60
2019-03-12T12:01:42.292Z,21.50
2019-03-12T12:04:56.013Z,21.60
2019-03-12T12:08:01.781Z,21.60
2019-03-12T12:11:10.340Z,21.60
2019-03-12T12:14:16.035Z,21.60
2019-03-12T12:17:21.696Z,21.50
2019-03-12T12:20:30.136Z,21.60
2019-03-12T12:23:34.755Z,21.60
2019-03-12T12:26:40.545Z,21.50
2019-03-12T12:29:46.275Z,21.60
2019-03-12T12:32:51.997Z,21.50
2019-03-12T12:35:57.676Z,21.50
2019-03-12T12:39:04.631Z,21.50
2019-03-12T12:42:13.252Z,21.50
2019-03-12T12:45:20.040Z,21.60
2019-03-12T12:48:25.795Z,21.50
2019-03-12T12:51:31.447Z,21.60
2019-03-12T12:54:37.219Z,21.60
2019-03-12T12:57:42.871Z,21.60
2019-03-12T13:00:48.512Z,21.60
2019-03-12T13:03:54.164Z,21.60
2019-03-12T13:07:00.135Z,21.60
2019-03-12T13:10:06.883Z,21.60
2019-03-12T13:13:14.476Z,21.60
2019-03-12T13:16:25.288Z,21.60
2019-03-12T13:19:28.927Z,21.60
2019-03-12T13:22:34.627Z,21.60
2019-03-12T13:25:40.429Z,21.60
2019-03-12T13:28:48.604Z,21.60
2019-03-12T13:31:55.311Z,21.60
2019-03-12T13:35:01.047Z,21.60
2019-03-12T13:38:07.111Z,21.60
2019-03-12T13:41:13.638Z,21.60
2019-03-12T13:44:20.567Z,21.70
2019-03-12T13:47:30.638Z,21.70
2019-03-12T13:50:36.365Z,21.70
2019-03-12T13:53:42.034Z,21.70
2019-03-12T13:56:48.024Z,21.70
2019-03-12T13:59:53.740Z,21.70
2019-03-12T14:02:59.613Z,21.70
2019-03-12T14:06:06.266Z,21.70
2019-03-12T14:09:11.988Z,21.70
2019-03-12T14:12:19.522Z,21.70
2019-03-12T14:15:27.064Z,21.70
2019-03-12T14:18:32.722Z,21.70
2019-03-12T14:21:43.324Z,21.70
2019-03-12T14:24:48.955Z,21.70
2019-03-12T14:27:54.715Z,21.70
2019-03-12T14:31:00.548Z,21.70
2019-03-12T14:34:06.324Z,21.70
2019-03-12T14:37:13.221Z,21.60
2019-03-12T14:40:18.856Z,21.60
2019-03-12T14:43:24.800Z,21.60
2019-03-12T14:46:30.553Z,21.70
2019-03-12T14:49:36.307Z,21.60
2019-03-12T14:52:48.084Z,21.60
2019-03-12T14:55:53.780Z,21.60
2019-03-12T14:58:59.732Z,21.70
2019-03-12T15:02:05.592Z,21.60
2019-03-12T15:05:11.454Z,21.60
2019-03-12T15:08:17.361Z,21.70
2019-03-12T15:11:24.516Z,21.70
2019-03-12T15:14:30.579Z,21.70
2019-03-12T15:17:37.359Z,21.70
2019-03-12T15:20:43.690Z,21.70
2019-03-12T15:23:49.771Z,21.70
2019-03-12T15:26:56.327Z,21.70
2019-03-12T15:30:03.004Z,21.70
2019-03-12T15:33:10.631Z,21.70
2019-03-12T15:36:18.515Z,21.70
2019-03-12T15:39:24.973Z,21.70
2019-03-12T15:42:30.653Z,21.70
2019-03-12T15:45:36.317Z,21.70
2019-03-12T15:48:42.105Z,21.70
2019-03-12T15:51:47.801Z,21.70
2019-03-12T15:54:53.479Z,21.70
2019-03-12T15:58:00.943Z,21.70
2019-03-12T16:01:06.733Z,21.70
2019-03-12T16:04:12.615Z,21.70
2019-03-12T16:07:18.840Z,21.70
2019-03-12T16:10:24.512Z,21.70
2019-03-12T16:13:30.153Z,21.70
2019-03-12T16:16:36.135Z,21.70
2019-03-12T16:19:41.804Z,21.70
2019-03-12T16:22:47.501Z,21.70
2019-03-12T16:25:53.208Z,21.70
2019-03-12T16:28:58.904Z,21.70
2019-03-12T16:32:04.579Z,21.80
2019-03-12T16:35:10.559Z,21.80
2019-03-12T16:38:16.275Z,21.80
2019-03-12T16:41:23.008Z,21.80
2019-03-12T16:44:34.645Z,21.80
2019-03-12T16:47:40.321Z,21.80
2019-03-12T16:50:46.109Z,21.80
2019-03-12T16:53:51.700Z,21.80
2019-03-12T16:56:57.408Z,21.80
2019-03-12T17:00:08.189Z,21.80
2019-03-12T17:03:12.374Z,21.80
2019-03-12T17:06:20.684Z,21.80
2019-03-12T17:09:26.437Z,21.80
2019-03-12T17:12:33.971Z,21.90
2019-03-12T17:15:40.691Z,21.90
2019-03-12T17:22:04.982Z,21.90
2019-03-12T17:25:11.355Z,21.90
2019-03-12T17:28:17.162Z,21.90
2019-03-12T17:31:22.905Z,21.90
2019-03-12T17:34:35.647Z,21.90
2019-03-12T17:37:38.208Z,21.90
2019-03-12T17:40:44.398Z,22.00
2019-03-12T17:43:51.564Z,21.90
2019-03-12T17:46:57.831Z,21.90
2019-03-12T17:50:03.472Z,21.90
2019-03-12T17:53:09.721Z,22.00
2019-03-12T17:56:15.459Z,22.00
2019-03-12T17:59:22.491Z,22.00
2019-03-12T18:02:28.140Z,22.00
2019-03-12T18:05:33.776Z,22.00
2019-03-12T18:08:39.956Z,22.00
2019-03-12T18:11:45.659Z,22.00
2019-03-12T18:14:51.363Z,22.00
2019-03-12T18:17:57.000Z,22.00
2019-03-12T18:21:02.973Z,22.00
2019-03-12T18:24:10.144Z,22.00
2019-03-12T18:27:16.959Z,22.00
2019-03-12T18:30:23.717Z,22.00
2019-03-12T18:33:32.349Z,22.00
2019-03-12T18:36:38.203Z,22.00
2019-03-12T18:39:43.841Z,22.00
2019-03-12T18:42:49.708Z,22.10
2019-03-12T18:45:55.353Z,22.00
2019-03-12T18:49:02.726Z,22.00
2019-03-12T18:52:08.427Z,22.10
2019-03-12T18:55:44.043Z,22.10
2019-03-12T18:58:49.732Z,22.10
2019-03-12T19:01:58.448Z,22.10
2019-03-12T19:05:03.779Z,22.10
2019-03-12T19:08:11.329Z,22.10
2019-03-12T19:11:17.199Z,22.10
2019-03-12T19:14:23.001Z,22.10
2019-03-12T19:17:29.925Z,22.10
2019-03-12T19:20:35.798Z,22.20
2019-03-12T19:23:41.652Z,22.20
2019-03-12T19:26:47.351Z,22.20
2019-03-12T19:29:53.087Z,22.20
2019-03-12T19:33:01.861Z,22.20
2019-03-12T19:36:09.092Z,22.20
2019-03-12T19:39:16.423Z,22.20
2019-03-12T19:42:22.052Z,22.20
2019-03-12T19:45:27.933Z,22.20
2019-03-12T19:48:33.617Z,22.20
2019-03-12T19:51:39.231Z,22.20
2019-03-12T19:54:44.999Z,22.20
2019-03-12T19:57:50.715Z,22.20
2019-03-12T20:00:56.396Z,22.20
2019-03-12T20:04:03.232Z,22.20
2019-03-12T20:07:09.533Z,22.20
2019-03-12T20:10:42.603Z,22.30
2019-03-12T20:14:29.557Z,22.40
2019-03-12T20:18:14.630Z,22.40
2019-03-12T20:22:05.510Z,22.50
2019-03-12T20:26:19.088Z,22.50
2019-03-12T20:30:17.844Z,22.50
2019-03-12T20:34:32.189Z,22.60
2019-03-12T20:38:13.532Z,22.60
2019-03-12T20:41:57.040Z,22.60
2019-03-12T20:46:03.120Z,22.60
2019-03-12T20:49:48.359Z,22.70
2019-03-12T20:53:29.817Z,22.70
2019-03-12T20:57:12.031Z,22.70
2019-03-12T21:01:15.440Z,22.70
2019-03-12T21:04:58.407Z,22.70
2019-03-12T21:09:10.651Z,22.70
2019-03-12T21:13:02.907Z,22.60
2019-03-12T21:16:56.093Z,22.60
2019-03-12T21:20:35.616Z,22.60
2019-03-12T21:24:09.042Z,22.50
2019-03-12T21:27:47.321Z,22.50
2019-03-12T21:30:52.989Z,22.50
2019-03-12T21:33:58.748Z,22.50
2019-03-12T21:37:04.523Z,22.50
2019-03-12T21:40:11.168Z,22.50
2019-03-12T21:43:16.845Z,22.40
2019-03-12T21:46:22.499Z,22.40
2019-03-12T21:49:28.147Z,22.30
2019-03-12T21:52:35.407Z,22.30
2019-03-12T21:55:41.023Z,22.30
2019-03-12T21:58:46.483Z,22.20
2019-03-12T22:01:52.083Z,22.20
2019-03-12T22:04:57.624Z,22.20
2019-03-12T22:08:03.240Z,22.20
2019-03-12T22:11:08.895Z,22.20
2019-03-12T22:14:15.436Z,22.20
2019-03-12T22:17:20.897Z,22.10
2019-03-12T22:20:27.522Z,22.10
2019-03-12T22:23:39.452Z,22.10
2019-03-12T22:26:45.124Z,22.10
2019-03-12T22:29:50.651Z,22.10
2019-03-12T22:32:56.187Z,22.10
2019-03-12T22:36:01.644Z,22.00
2019-03-12T22:39:07.509Z,22.00
2019-03-12T22:42:13.777Z,22.00
2019-03-12T22:45:19.239Z,22.00
2019-03-12T22:48:24.712Z,22.00
2019-03-12T22:51:31.286Z,22.00
2019-03-12T22:54:36.883Z,22.00
2019-03-12T22:57:42.472Z,22.00
2019-03-12T23:01:06.376Z,21.90
2019-03-12T23:04:29.915Z,21.90
2019-03-12T23:07:53.367Z,21.90
2019-03-12T23:10:59.391Z,21.80
2019-03-12T23:14:05.679Z,21.80
2019-03-12T23:17:11.543Z,21.80
2019-03-12T23:20:19.123Z,21.90
2019-03-12T23:23:24.994Z,21.80
2019-03-12T23:26:30.760Z,21.80
2019-03-12T23:29:36.291Z,21.80
2019-03-12T23:32:42.856Z,21.70
2019-03-12T23:35:50.242Z,21.80
2019-03-12T23:38:55.771Z,21.70
2019-03-12T23:42:01.428Z,21.70
2019-03-12T23:45:08.304Z,21.70
2019-03-12T23:48:13.902Z,21.70
2019-03-12T23:51:19.359Z,21.70
2019-03-12T23:54:25.131Z,21.60
2019-03-12T23:57:31.635Z,21.70
